sensor_id;sensor_type;location;lat;lon;timestamp;pressure;altitude;pressure_sealevel;temperature;humidity
64230;BME280;50547;49.498;0.092;2023-07-08T00:02:26;1007.55;;;26.54;54.77
64230;BME280;50547;49.498;0.092;2023-07-08T00:04:55;1007.57;;;26.54;54.76
64230;BME280;50547;49.498;0.092;2023-07-08T00:07:25;1007.57;;;26.60;54.51
64230;BME280;50547;49.498;0.092;2023-07-08T00:09:54;1007.51;;;26.53;54.94
64230;BME280;50547;49.498;0.092;2023-07-08T00:12:20;1007.45;;;26.57;54.95
64230;BME280;50547;49.498;0.092;2023-07-08T00:14:50;1007.39;;;26.43;55.76
64230;BME280;50547;49.498;0.092;2023-07-08T00:17:20;1007.45;;;26.40;55.68
64230;BME280;50547;49.498;0.092;2023-07-08T00:19:49;1007.41;;;26.27;56.29
64230;BME280;50547;49.498;0.092;2023-07-08T00:22:19;1007.39;;;26.16;56.75
64230;BME280;50547;49.498;0.092;2023-07-08T00:24:48;1007.39;;;26.14;56.67
64230;BME280;50547;49.498;0.092;2023-07-08T00:27:18;1007.39;;;26.08;56.85
64230;BME280;50547;49.498;0.092;2023-07-08T00:29:47;1007.41;;;25.96;57.39
64230;BME280;50547;49.498;0.092;2023-07-08T00:32:17;1007.37;;;25.91;57.52
64230;BME280;50547;49.498;0.092;2023-07-08T00:34:46;1007.41;;;25.78;58.00
64230;BME280;50547;49.498;0.092;2023-07-08T00:37:16;1007.39;;;25.73;58.02
64230;BME280;50547;49.498;0.092;2023-07-08T00:39:46;1007.39;;;25.64;58.25
64230;BME280;50547;49.498;0.092;2023-07-08T00:42:18;1007.39;;;25.50;58.79
64230;BME280;50547;49.498;0.092;2023-07-08T00:44:48;1007.39;;;25.46;58.63
64230;BME280;50547;49.498;0.092;2023-07-08T00:47:18;1007.37;;;25.36;59.02
64230;BME280;50547;49.498;0.092;2023-07-08T00:49:57;1007.43;;;25.39;58.81
64230;BME280;50547;49.498;0.092;2023-07-08T00:52:29;1007.41;;;25.34;59.05
64230;BME280;50547;49.498;0.092;2023-07-08T00:55:00;1007.49;;;25.27;59.25
64230;BME280;50547;49.498;0.092;2023-07-08T00:57:33;1007.57;;;25.24;59.36
64230;BME280;50547;49.498;0.092;2023-07-08T01:00:06;1007.59;;;25.26;59.06
64230;BME280;50547;49.498;0.092;2023-07-08T01:02:40;1007.61;;;25.23;59.28
64230;BME280;50547;49.498;0.092;2023-07-08T01:05:12;1007.76;;;25.27;59.01
64230;BME280;50547;49.498;0.092;2023-07-08T01:07:46;1007.92;;;25.26;59.07
64230;BME280;50547;49.498;0.092;2023-07-08T01:10:22;1007.86;;;25.18;59.39
64230;BME280;50547;49.498;0.092;2023-07-08T01:12:57;1007.88;;;25.14;59.43
64230;BME280;50547;49.498;0.092;2023-07-08T01:15:32;1007.96;;;25.08;59.68
64230;BME280;50547;49.498;0.092;2023-07-08T01:18:10;1007.92;;;25.06;59.78
64230;BME280;50547;49.498;0.092;2023-07-08T01:20:43;1008.06;;;25.01;59.96
64230;BME280;50547;49.498;0.092;2023-07-08T01:23:13;1008.16;;;25.04;59.78
64230;BME280;50547;49.498;0.092;2023-07-08T01:25:43;1008.12;;;24.93;60.29
64230;BME280;50547;49.498;0.092;2023-07-08T01:28:14;1008.14;;;24.97;60.21
64230;BME280;50547;49.498;0.092;2023-07-08T01:30:44;1008.16;;;24.94;60.34
64230;BME280;50547;49.498;0.092;2023-07-08T01:33:17;1008.12;;;24.99;60.06
64230;BME280;50547;49.498;0.092;2023-07-08T01:35:48;1008.22;;;24.94;60.40
64230;BME280;50547;49.498;0.092;2023-07-08T01:38:22;1008.28;;;24.84;60.94
64230;BME280;50547;49.498;0.092;2023-07-08T01:40:54;1008.20;;;24.86;60.53
64230;BME280;50547;49.498;0.092;2023-07-08T01:43:24;1008.12;;;24.77;60.98
64230;BME280;50547;49.498;0.092;2023-07-08T01:45:54;1008.12;;;24.70;60.86
64230;BME280;50547;49.498;0.092;2023-07-08T01:48:24;1008.06;;;24.74;60.30
64230;BME280;50547;49.498;0.092;2023-07-08T01:50:57;1008.18;;;24.76;60.21
64230;BME280;50547;49.498;0.092;2023-07-08T01:53:31;1008.10;;;24.73;60.19
64230;BME280;50547;49.498;0.092;2023-07-08T01:56:01;1008.16;;;24.65;60.35
64230;BME280;50547;49.498;0.092;2023-07-08T01:58:31;1008.12;;;24.66;60.13
64230;BME280;50547;49.498;0.092;2023-07-08T02:01:01;1008.08;;;24.70;59.52
64230;BME280;50547;49.498;0.092;2023-07-08T02:03:31;1008.12;;;24.90;58.71
64230;BME280;50547;49.498;0.092;2023-07-08T02:06:00;1008.22;;;24.88;59.06
64230;BME280;50547;49.498;0.092;2023-07-08T02:08:30;1008.18;;;24.90;59.19
64230;BME280;50547;49.498;0.092;2023-07-08T02:10:59;1008.16;;;24.90;59.20
64230;BME280;50547;49.498;0.092;2023-07-08T02:13:29;1008.22;;;25.00;58.65
64230;BME280;50547;49.498;0.092;2023-07-08T02:15:58;1008.20;;;25.13;58.32
64230;BME280;50547;49.498;0.092;2023-07-08T02:18:27;1008.16;;;25.07;58.49
64230;BME280;50547;49.498;0.092;2023-07-08T02:20:57;1008.12;;;25.11;58.26
64230;BME280;50547;49.498;0.092;2023-07-08T02:23:26;1008.12;;;25.10;58.25
64230;BME280;50547;49.498;0.092;2023-07-08T02:25:56;1008.12;;;25.10;58.02
64230;BME280;50547;49.498;0.092;2023-07-08T02:28:25;1007.98;;;25.14;57.81
64230;BME280;50547;49.498;0.092;2023-07-08T02:30:55;1008.10;;;25.24;57.11
64230;BME280;50547;49.498;0.092;2023-07-08T02:33:24;1007.98;;;25.31;56.60
64230;BME280;50547;49.498;0.092;2023-07-08T02:35:53;1007.96;;;25.40;55.94
64230;BME280;50547;49.498;0.092;2023-07-08T02:38:23;1008.06;;;25.45;55.76
64230;BME280;50547;49.498;0.092;2023-07-08T02:40:52;1007.98;;;25.54;55.32
64230;BME280;50547;49.498;0.092;2023-07-08T02:43:22;1007.88;;;25.55;54.50
64230;BME280;50547;49.498;0.092;2023-07-08T02:45:52;1007.88;;;25.58;53.94
64230;BME280;50547;49.498;0.092;2023-07-08T02:48:21;1007.92;;;25.61;53.37
64230;BME280;50547;49.498;0.092;2023-07-08T02:50:51;1007.94;;;25.68;52.67
64230;BME280;50547;49.498;0.092;2023-07-08T02:53:27;1008.06;;;25.77;52.13
64230;BME280;50547;49.498;0.092;2023-07-08T02:55:57;1007.98;;;25.79;51.19
64230;BME280;50547;49.498;0.092;2023-07-08T02:58:27;1008.06;;;25.86;50.84
64230;BME280;50547;49.498;0.092;2023-07-08T03:00:57;1008.06;;;25.86;50.68
64230;BME280;50547;49.498;0.092;2023-07-08T03:03:27;1007.96;;;25.92;50.61
64230;BME280;50547;49.498;0.092;2023-07-08T03:05:58;1007.98;;;26.03;50.49
64230;BME280;50547;49.498;0.092;2023-07-08T03:08:28;1008.08;;;26.07;50.52
64230;BME280;50547;49.498;0.092;2023-07-08T03:11:00;1007.98;;;26.12;50.54
64230;BME280;50547;49.498;0.092;2023-07-08T03:13:30;1007.98;;;26.11;50.33
64230;BME280;50547;49.498;0.092;2023-07-08T03:16:00;1008.10;;;25.97;50.49
64230;BME280;50547;49.498;0.092;2023-07-08T03:18:30;1008.18;;;25.85;50.65
64230;BME280;50547;49.498;0.092;2023-07-08T03:21:00;1008.20;;;25.85;50.59
64230;BME280;50547;49.498;0.092;2023-07-08T03:23:29;1008.24;;;25.92;50.16
64230;BME280;50547;49.498;0.092;2023-07-08T03:25:59;1008.36;;;25.93;50.18
64230;BME280;50547;49.498;0.092;2023-07-08T03:28:28;1008.44;;;26.05;50.04
64230;BME280;50547;49.498;0.092;2023-07-08T03:30:58;1008.48;;;26.17;49.47
64230;BME280;50547;49.498;0.092;2023-07-08T03:33:27;1008.59;;;26.18;49.62
64230;BME280;50547;49.498;0.092;2023-07-08T03:35:57;1008.83;;;26.17;55.78
64230;BME280;50547;49.498;0.092;2023-07-08T03:38:26;1008.77;;;25.80;58.19
64230;BME280;50547;49.498;0.092;2023-07-08T03:40:55;1008.99;;;25.17;61.62
64230;BME280;50547;49.498;0.092;2023-07-08T03:43:21;1009.04;;;25.13;62.35
64230;BME280;50547;49.498;0.092;2023-07-08T03:45:50;1009.06;;;24.35;66.90
64230;BME280;50547;49.498;0.092;2023-07-08T03:48:19;1008.95;;;24.29;67.23
64230;BME280;50547;49.498;0.092;2023-07-08T03:50:48;1008.89;;;24.10;68.45
64230;BME280;50547;49.498;0.092;2023-07-08T03:53:17;1008.81;;;23.70;67.92
64230;BME280;50547;49.498;0.092;2023-07-08T03:55:46;1008.79;;;23.45;67.89
64230;BME280;50547;49.498;0.092;2023-07-08T03:58:15;1008.89;;;23.37;67.26
64230;BME280;50547;49.498;0.092;2023-07-08T04:00:44;1008.87;;;23.23;66.32
64230;BME280;50547;49.498;0.092;2023-07-08T04:03:14;1008.89;;;23.25;66.60
64230;BME280;50547;49.498;0.092;2023-07-08T04:05:43;1008.81;;;23.04;65.97
64230;BME280;50547;49.498;0.092;2023-07-08T04:08:12;1008.91;;;23.14;65.56
64230;BME280;50547;49.498;0.092;2023-07-08T04:10:42;1009.00;;;23.13;66.23
64230;BME280;50547;49.498;0.092;2023-07-08T04:13:11;1009.12;;;23.20;65.43
64230;BME280;50547;49.498;0.092;2023-07-08T04:15:40;1009.26;;;23.16;64.98
64230;BME280;50547;49.498;0.092;2023-07-08T04:18:09;1009.51;;;23.15;66.11
64230;BME280;50547;49.498;0.092;2023-07-08T04:20:38;1009.53;;;23.20;65.62
64230;BME280;50547;49.498;0.092;2023-07-08T04:23:07;1009.47;;;23.27;64.88
64230;BME280;50547;49.498;0.092;2023-07-08T04:25:37;1009.34;;;23.29;64.31
64230;BME280;50547;49.498;0.092;2023-07-08T04:28:06;1009.32;;;23.44;64.33
64230;BME280;50547;49.498;0.092;2023-07-08T04:30:35;1009.42;;;23.38;63.68
64230;BME280;50547;49.498;0.092;2023-07-08T04:33:05;1009.49;;;23.22;64.89
64230;BME280;50547;49.498;0.092;2023-07-08T04:35:34;1009.44;;;23.42;63.23
64230;BME280;50547;49.498;0.092;2023-07-08T04:38:04;1009.46;;;23.58;61.55
64230;BME280;50547;49.498;0.092;2023-07-08T04:40:33;1009.40;;;23.78;60.94
64230;BME280;50547;49.498;0.092;2023-07-08T04:43:03;1009.34;;;23.94;60.43
64230;BME280;50547;49.498;0.092;2023-07-08T04:45:32;1009.36;;;24.04;60.43
64230;BME280;50547;49.498;0.092;2023-07-08T04:48:02;1009.34;;;24.34;60.08
64230;BME280;50547;49.498;0.092;2023-07-08T04:50:32;1009.34;;;24.52;59.78
64230;BME280;50547;49.498;0.092;2023-07-08T04:53:01;1009.38;;;24.66;59.88
64230;BME280;50547;49.498;0.092;2023-07-08T04:55:30;1009.42;;;24.56;61.39
64230;BME280;50547;49.498;0.092;2023-07-08T04:58:00;1009.53;;;24.30;63.76
64230;BME280;50547;49.498;0.092;2023-07-08T05:00:29;1009.51;;;24.01;64.36
64230;BME280;50547;49.498;0.092;2023-07-08T05:02:59;1009.46;;;23.87;64.40
64230;BME280;50547;49.498;0.092;2023-07-08T05:05:28;1009.44;;;23.92;65.09
64230;BME280;50547;49.498;0.092;2023-07-08T05:07:58;1009.44;;;23.65;64.17
64230;BME280;50547;49.498;0.092;2023-07-08T05:10:27;1009.46;;;23.71;63.21
64230;BME280;50547;49.498;0.092;2023-07-08T05:12:57;1009.40;;;23.69;63.76
64230;BME280;50547;49.498;0.092;2023-07-08T05:15:26;1009.34;;;23.64;64.76
64230;BME280;50547;49.498;0.092;2023-07-08T05:17:55;1009.32;;;23.27;67.24
64230;BME280;50547;49.498;0.092;2023-07-08T05:20:25;1009.32;;;23.14;66.96
64230;BME280;50547;49.498;0.092;2023-07-08T05:22:54;1009.36;;;23.19;66.05
64230;BME280;50547;49.498;0.092;2023-07-08T05:25:23;1009.36;;;23.23;65.45
64230;BME280;50547;49.498;0.092;2023-07-08T05:27:53;1009.38;;;23.32;64.97
64230;BME280;50547;49.498;0.092;2023-07-08T05:30:22;1009.38;;;23.56;63.77
64230;BME280;50547;49.498;0.092;2023-07-08T05:32:53;1009.42;;;23.65;62.98
64230;BME280;50547;49.498;0.092;2023-07-08T05:35:23;1009.47;;;23.90;61.87
64230;BME280;50547;49.498;0.092;2023-07-08T05:37:52;1009.55;;;24.02;60.86
64230;BME280;50547;49.498;0.092;2023-07-08T05:40:22;1009.63;;;23.80;62.89
64230;BME280;50547;49.498;0.092;2023-07-08T05:42:52;1009.63;;;23.77;62.81
64230;BME280;50547;49.498;0.092;2023-07-08T05:45:21;1009.61;;;23.84;62.49
64230;BME280;50547;49.498;0.092;2023-07-08T05:47:50;1009.65;;;23.92;62.14
64230;BME280;50547;49.498;0.092;2023-07-08T05:50:20;1009.65;;;23.81;63.46
64230;BME280;50547;49.498;0.092;2023-07-08T05:52:49;1009.67;;;23.77;64.12
64230;BME280;50547;49.498;0.092;2023-07-08T05:55:19;1009.67;;;23.61;65.04
64230;BME280;50547;49.498;0.092;2023-07-08T05:57:48;1009.69;;;23.66;64.92
64230;BME280;50547;49.498;0.092;2023-07-08T06:00:17;1009.69;;;23.80;65.53
64230;BME280;50547;49.498;0.092;2023-07-08T06:02:46;1009.73;;;23.84;65.76
64230;BME280;50547;49.498;0.092;2023-07-08T06:05:16;1009.77;;;24.15;63.76
64230;BME280;50547;49.498;0.092;2023-07-08T06:07:45;1009.79;;;24.31;63.13
64230;BME280;50547;49.498;0.092;2023-07-08T06:10:14;1009.83;;;24.43;62.37
64230;BME280;50547;49.498;0.092;2023-07-08T06:12:44;1009.79;;;24.58;61.22
64230;BME280;50547;49.498;0.092;2023-07-08T06:15:14;1009.73;;;24.66;60.52
64230;BME280;50547;49.498;0.092;2023-07-08T06:17:43;1009.73;;;24.84;59.60
64230;BME280;50547;49.498;0.092;2023-07-08T06:20:12;1009.71;;;25.06;58.90
64230;BME280;50547;49.498;0.092;2023-07-08T06:22:41;1009.73;;;25.26;58.79
64230;BME280;50547;49.498;0.092;2023-07-08T06:25:10;1009.75;;;25.48;57.49
64230;BME280;50547;49.498;0.092;2023-07-08T06:27:39;1009.77;;;25.64;57.35
64230;BME280;50547;49.498;0.092;2023-07-08T06:30:25;1009.79;;;25.80;57.14
64230;BME280;50547;49.498;0.092;2023-07-08T06:32:54;1009.77;;;26.01;56.73
64230;BME280;50547;49.498;0.092;2023-07-08T06:35:24;1009.75;;;25.76;57.08
64230;BME280;50547;49.498;0.092;2023-07-08T06:37:53;1009.71;;;25.53;58.39
64230;BME280;50547;49.498;0.092;2023-07-08T06:40:22;1009.59;;;25.65;57.73
64230;BME280;50547;49.498;0.092;2023-07-08T06:42:51;1009.67;;;25.77;57.20
64230;BME280;50547;49.498;0.092;2023-07-08T06:45:20;1009.61;;;25.88;56.82
64230;BME280;50547;49.498;0.092;2023-07-08T06:47:49;1009.65;;;26.07;55.85
64230;BME280;50547;49.498;0.092;2023-07-08T06:50:19;1009.73;;;26.40;54.91
64230;BME280;50547;49.498;0.092;2023-07-08T06:52:48;1009.87;;;26.61;55.18
64230;BME280;50547;49.498;0.092;2023-07-08T06:55:17;1009.83;;;26.97;54.48
64230;BME280;50547;49.498;0.092;2023-07-08T06:57:46;1009.83;;;26.96;54.68
64230;BME280;50547;49.498;0.092;2023-07-08T07:00:16;1009.83;;;26.66;55.69
64230;BME280;50547;49.498;0.092;2023-07-08T07:02:45;1009.87;;;26.47;56.32
64230;BME280;50547;49.498;0.092;2023-07-08T07:05:14;1010.00;;;26.09;58.66
64230;BME280;50547;49.498;0.092;2023-07-08T07:07:44;1010.02;;;26.13;58.68
64230;BME280;50547;49.498;0.092;2023-07-08T07:10:14;1010.08;;;26.57;56.72
64230;BME280;50547;49.498;0.092;2023-07-08T07:12:43;1010.06;;;26.55;57.28
64230;BME280;50547;49.498;0.092;2023-07-08T07:15:12;1010.10;;;25.90;61.20
64230;BME280;50547;49.498;0.092;2023-07-08T07:17:41;1010.18;;;26.08;60.73
64230;BME280;50547;49.498;0.092;2023-07-08T07:20:11;1010.28;;;26.19;60.52
64230;BME280;50547;49.498;0.092;2023-07-08T07:22:40;1010.36;;;26.76;59.41
64230;BME280;50547;49.498;0.092;2023-07-08T07:25:10;1010.41;;;27.81;56.21
64230;BME280;50547;49.498;0.092;2023-07-08T07:27:39;1010.55;;;28.28;54.45
64230;BME280;50547;49.498;0.092;2023-07-08T07:30:09;1010.45;;;27.30;58.52
64230;BME280;50547;49.498;0.092;2023-07-08T07:32:38;1010.49;;;27.81;58.06
64230;BME280;50547;49.498;0.092;2023-07-08T07:35:08;1010.66;;;28.17;55.97
64230;BME280;50547;49.498;0.092;2023-07-08T07:37:37;1010.75;;;27.74;57.59
64230;BME280;50547;49.498;0.092;2023-07-08T07:40:08;1010.87;;;28.13;56.79
64230;BME280;50547;49.498;0.092;2023-07-08T07:42:37;1010.83;;;27.43;60.47
64230;BME280;50547;49.498;0.092;2023-07-08T07:45:08;1010.91;;;28.01;59.66
64230;BME280;50547;49.498;0.092;2023-07-08T07:47:37;1010.97;;;28.55;56.90
64230;BME280;50547;49.498;0.092;2023-07-08T07:50:09;1011.03;;;28.05;59.94
64230;BME280;50547;49.498;0.092;2023-07-08T07:52:38;1011.07;;;26.99;65.02
64230;BME280;50547;49.498;0.092;2023-07-08T07:55:08;1011.07;;;27.32;63.70
64230;BME280;50547;49.498;0.092;2023-07-08T07:57:37;1011.07;;;27.59;62.54
64230;BME280;50547;49.498;0.092;2023-07-08T08:00:07;1011.11;;;27.87;60.97
64230;BME280;50547;49.498;0.092;2023-07-08T08:02:36;1011.15;;;27.51;61.48
64230;BME280;50547;49.498;0.092;2023-07-08T08:05:06;1011.22;;;27.07;63.78
64230;BME280;50547;49.498;0.092;2023-07-08T08:07:35;1011.18;;;26.93;64.33
64230;BME280;50547;49.498;0.092;2023-07-08T08:10:04;1011.20;;;27.25;63.55
64230;BME280;50547;49.498;0.092;2023-07-08T08:12:34;1011.18;;;27.49;62.57
64230;BME280;50547;49.498;0.092;2023-07-08T08:15:04;1011.17;;;26.92;63.02
64230;BME280;50547;49.498;0.092;2023-07-08T08:17:33;1011.17;;;26.95;63.78
64230;BME280;50547;49.498;0.092;2023-07-08T08:20:03;1011.17;;;27.37;62.05
64230;BME280;50547;49.498;0.092;2023-07-08T08:22:32;1011.18;;;27.29;61.00
64230;BME280;50547;49.498;0.092;2023-07-08T08:25:01;1011.17;;;27.02;61.59
64230;BME280;50547;49.498;0.092;2023-07-08T08:27:30;1011.11;;;26.98;61.17
64230;BME280;50547;49.498;0.092;2023-07-08T08:29:59;1011.13;;;26.81;62.21
64230;BME280;50547;49.498;0.092;2023-07-08T08:32:28;1011.07;;;26.40;62.61
64230;BME280;50547;49.498;0.092;2023-07-08T08:34:58;1011.09;;;25.86;64.44
64230;BME280;50547;49.498;0.092;2023-07-08T08:37:27;1011.05;;;25.70;64.30
64230;BME280;50547;49.498;0.092;2023-07-08T08:39:56;1011.01;;;25.67;63.85
64230;BME280;50547;49.498;0.092;2023-07-08T08:42:27;1010.97;;;25.80;62.63
64230;BME280;50547;49.498;0.092;2023-07-08T08:44:58;1010.91;;;25.69;62.45
64230;BME280;50547;49.498;0.092;2023-07-08T08:47:35;1010.83;;;25.40;62.79
64230;BME280;50547;49.498;0.092;2023-07-08T08:50:25;1010.83;;;24.98;63.85
64230;BME280;50547;49.498;0.092;2023-07-08T08:52:59;1010.81;;;25.13;62.99
64230;BME280;50547;49.498;0.092;2023-07-08T08:55:30;1010.79;;;25.25;61.86
64230;BME280;50547;49.498;0.092;2023-07-08T08:58:26;1010.81;;;25.34;61.81
64230;BME280;50547;49.498;0.092;2023-07-08T09:01:04;1010.83;;;25.29;62.78
64230;BME280;50547;49.498;0.092;2023-07-08T09:03:39;1010.87;;;25.34;62.48
64230;BME280;50547;49.498;0.092;2023-07-08T09:06:12;1010.97;;;25.91;59.63
64230;BME280;50547;49.498;0.092;2023-07-08T09:08:42;1011.07;;;26.22;59.57
64230;BME280;50547;49.498;0.092;2023-07-08T09:11:19;1011.09;;;26.92;58.03
64230;BME280;50547;49.498;0.092;2023-07-08T09:13:51;1011.09;;;26.79;58.11
64230;BME280;50547;49.498;0.092;2023-07-08T09:16:29;1010.95;;;26.95;57.94
64230;BME280;50547;49.498;0.092;2023-07-08T09:19:08;1010.91;;;26.73;58.48
64230;BME280;50547;49.498;0.092;2023-07-08T09:21:46;1010.79;;;26.06;61.43
64230;BME280;50547;49.498;0.092;2023-07-08T09:24:22;1010.41;;;25.14;65.27
64230;BME280;50547;49.498;0.092;2023-07-08T09:27:07;1010.37;;;24.80;66.19
64230;BME280;50547;49.498;0.092;2023-07-08T09:29:36;1010.55;;;24.81;65.50
64230;BME280;50547;49.498;0.092;2023-07-08T09:32:15;1010.99;;;25.50;62.66
64230;BME280;50547;49.498;0.092;2023-07-08T09:34:47;1011.52;;;26.29;59.35
64230;BME280;50547;49.498;0.092;2023-07-08T09:37:22;1011.77;;;27.41;56.03
64230;BME280;50547;49.498;0.092;2023-07-08T09:39:53;1011.75;;;27.61;54.70
64230;BME280;50547;49.498;0.092;2023-07-08T09:42:27;1011.79;;;28.44;55.28
64230;BME280;50547;49.498;0.092;2023-07-08T09:44:58;1011.77;;;27.98;59.20
64230;BME280;50547;49.498;0.092;2023-07-08T09:47:30;1011.54;;;27.93;58.59
64230;BME280;50547;49.498;0.092;2023-07-08T09:50:03;1011.18;;;28.05;55.85
64230;BME280;50547;49.498;0.092;2023-07-08T09:52:33;1010.73;;;26.78;62.30
64230;BME280;50547;49.498;0.092;2023-07-08T09:55:02;1010.68;;;26.19;64.00
64230;BME280;50547;49.498;0.092;2023-07-08T09:57:33;1010.68;;;26.30;60.08
64230;BME280;50547;49.498;0.092;2023-07-08T10:00:07;1011.13;;;26.26;59.76
64230;BME280;50547;49.498;0.092;2023-07-08T10:02:41;1011.77;;;26.50;59.01
64230;BME280;50547;49.498;0.092;2023-07-08T10:05:17;1012.11;;;25.85;66.19
64230;BME280;50547;49.498;0.092;2023-07-08T10:07:48;1011.87;;;25.61;69.84
64230;BME280;50547;49.498;0.092;2023-07-08T10:10:16;1011.54;;;25.39;70.25
64230;BME280;50547;49.498;0.092;2023-07-08T10:12:54;1011.95;;;25.48;70.92
64230;BME280;50547;49.498;0.092;2023-07-08T10:15:30;1011.93;;;24.96;72.47
64230;BME280;50547;49.498;0.092;2023-07-08T10:18:01;1011.64;;;24.87;71.93
64230;BME280;50547;49.498;0.092;2023-07-08T10:20:39;1011.42;;;24.50;73.65
64230;BME280;50547;49.498;0.092;2023-07-08T10:23:20;1011.42;;;24.47;73.00
64230;BME280;50547;49.498;0.092;2023-07-08T10:26:01;1011.48;;;24.75;72.27
64230;BME280;50547;49.498;0.092;2023-07-08T10:28:36;1011.71;;;25.32;71.14
64230;BME280;50547;49.498;0.092;2023-07-08T10:31:19;1011.95;;;25.69;70.95
64230;BME280;50547;49.498;0.092;2023-07-08T10:34:20;1012.11;;;25.63;71.10
64230;BME280;50547;49.498;0.092;2023-07-08T10:36:55;1012.20;;;25.76;70.88
64230;BME280;50547;49.498;0.092;2023-07-08T10:39:39;1012.22;;;26.17;70.07
64230;BME280;50547;49.498;0.092;2023-07-08T10:42:21;1012.26;;;26.57;69.50
64230;BME280;50547;49.498;0.092;2023-07-08T10:44:58;1012.20;;;26.73;69.00
64230;BME280;50547;49.498;0.092;2023-07-08T10:47:40;1012.07;;;26.92;68.59
64230;BME280;50547;49.498;0.092;2023-07-08T10:50:24;1011.99;;;26.58;66.83
64230;BME280;50547;49.498;0.092;2023-07-08T10:53:06;1011.97;;;26.39;68.16
64230;BME280;50547;49.498;0.092;2023-07-08T10:55:42;1011.91;;;26.97;66.19
64230;BME280;50547;49.498;0.092;2023-07-08T10:58:49;1011.64;;;27.04;63.89
64230;BME280;50547;49.498;0.092;2023-07-08T11:01:27;1011.40;;;26.26;67.59
64230;BME280;50547;49.498;0.092;2023-07-08T11:04:06;1011.32;;;25.88;68.85
64230;BME280;50547;49.498;0.092;2023-07-08T11:06:44;1011.17;;;25.53;70.11
64230;BME280;50547;49.498;0.092;2023-07-08T11:09:25;1011.15;;;25.48;69.70
64230;BME280;50547;49.498;0.092;2023-07-08T11:12:00;1011.09;;;25.53;68.79
64230;BME280;50547;49.498;0.092;2023-07-08T11:14:40;1011.20;;;25.56;67.77
64230;BME280;50547;49.498;0.092;2023-07-08T11:17:16;1011.24;;;25.62;68.13
64230;BME280;50547;49.498;0.092;2023-07-08T11:19:50;1011.36;;;25.82;67.16
64230;BME280;50547;49.498;0.092;2023-07-08T11:22:24;1011.67;;;26.13;65.90
64230;BME280;50547;49.498;0.092;2023-07-08T11:24:51;1011.85;;;26.06;65.49
64230;BME280;50547;49.498;0.092;2023-07-08T11:27:26;1011.99;;;26.40;65.37
64230;BME280;50547;49.498;0.092;2023-07-08T11:30:00;1011.97;;;26.66;64.45
64230;BME280;50547;49.498;0.092;2023-07-08T11:32:33;1012.03;;;26.94;64.84
64230;BME280;50547;49.498;0.092;2023-07-08T11:35:05;1012.16;;;26.78;67.19
64230;BME280;50547;49.498;0.092;2023-07-08T11:37:37;1012.07;;;26.25;69.17
64230;BME280;50547;49.498;0.092;2023-07-08T11:40:15;1011.99;;;26.08;69.83
64230;BME280;50547;49.498;0.092;2023-07-08T11:42:48;1011.93;;;25.53;70.87
64230;BME280;50547;49.498;0.092;2023-07-08T11:45:25;1011.95;;;25.03;72.00
64230;BME280;50547;49.498;0.092;2023-07-08T11:48:04;1011.93;;;24.77;71.92
64230;BME280;50547;49.498;0.092;2023-07-08T11:50:37;1011.69;;;25.14;70.08
64230;BME280;50547;49.498;0.092;2023-07-08T11:53:11;1011.56;;;25.58;67.68
64230;BME280;50547;49.498;0.092;2023-07-08T11:55:44;1011.46;;;25.68;66.19
64230;BME280;50547;49.498;0.092;2023-07-08T11:58:21;1011.64;;;25.73;66.50
64230;BME280;50547;49.498;0.092;2023-07-08T12:00:57;1011.73;;;25.55;67.28
64230;BME280;50547;49.498;0.092;2023-07-08T12:03:35;1011.71;;;25.36;69.57
64230;BME280;50547;49.498;0.092;2023-07-08T12:06:42;1011.75;;;25.04;70.96
64230;BME280;50547;49.498;0.092;2023-07-08T12:09:15;1011.71;;;25.18;69.89
64230;BME280;50547;49.498;0.092;2023-07-08T12:11:53;1011.64;;;25.17;68.66
64230;BME280;50547;49.498;0.092;2023-07-08T12:14:24;1011.65;;;25.11;69.38
64230;BME280;50547;49.498;0.092;2023-07-08T12:16:54;1011.73;;;25.25;67.92
64230;BME280;50547;49.498;0.092;2023-07-08T12:19:25;1011.99;;;25.45;67.88
64230;BME280;50547;49.498;0.092;2023-07-08T12:21:56;1012.18;;;25.78;67.12
64230;BME280;50547;49.498;0.092;2023-07-08T12:24:26;1012.61;;;26.03;66.23
64230;BME280;50547;49.498;0.092;2023-07-08T12:26:55;1012.91;;;25.88;67.47
64230;BME280;50547;49.498;0.092;2023-07-08T12:29:24;1012.97;;;25.40;70.55
64230;BME280;50547;49.498;0.092;2023-07-08T12:31:54;1012.97;;;25.51;70.48
64230;BME280;50547;49.498;0.092;2023-07-08T12:34:23;1012.89;;;25.06;71.61
64230;BME280;50547;49.498;0.092;2023-07-08T12:36:54;1012.77;;;24.50;73.86
64230;BME280;50547;49.498;0.092;2023-07-08T12:39:23;1012.54;;;24.04;75.32
64230;BME280;50547;49.498;0.092;2023-07-08T12:41:52;1012.44;;;24.10;74.47
64230;BME280;50547;49.498;0.092;2023-07-08T12:44:24;1012.48;;;24.37;73.49
64230;BME280;50547;49.498;0.092;2023-07-08T12:46:55;1012.50;;;24.72;72.21
64230;BME280;50547;49.498;0.092;2023-07-08T12:49:24;1012.44;;;25.11;71.04
64230;BME280;50547;49.498;0.092;2023-07-08T12:51:53;1012.28;;;24.77;71.24
64230;BME280;50547;49.498;0.092;2023-07-08T12:54:22;1011.85;;;24.78;73.07
64230;BME280;50547;49.498;0.092;2023-07-08T12:56:52;1011.50;;;24.64;74.99
64230;BME280;50547;49.498;0.092;2023-07-08T12:59:22;1011.20;;;24.52;75.72
64230;BME280;50547;49.498;0.092;2023-07-08T13:01:53;1010.97;;;24.44;75.44
64230;BME280;50547;49.498;0.092;2023-07-08T13:04:22;1011.09;;;24.40;73.81
64230;BME280;50547;49.498;0.092;2023-07-08T13:06:51;1011.40;;;24.70;72.59
64230;BME280;50547;49.498;0.092;2023-07-08T13:09:32;1011.77;;;25.27;70.70
64230;BME280;50547;49.498;0.092;2023-07-08T13:12:06;1011.79;;;25.61;69.68
64230;BME280;50547;49.498;0.092;2023-07-08T13:14:41;1011.93;;;26.15;68.33
64230;BME280;50547;49.498;0.092;2023-07-08T13:17:13;1012.01;;;26.68;67.52
64230;BME280;50547;49.498;0.092;2023-07-08T13:19:43;1012.05;;;27.09;65.58
64230;BME280;50547;49.498;0.092;2023-07-08T13:22:15;1012.07;;;26.78;67.92
64230;BME280;50547;49.498;0.092;2023-07-08T13:24:44;1011.99;;;26.12;71.03
64230;BME280;50547;49.498;0.092;2023-07-08T13:27:23;1012.01;;;25.70;73.25
64230;BME280;50547;49.498;0.092;2023-07-08T13:29:53;1011.99;;;25.38;72.76
64230;BME280;50547;49.498;0.092;2023-07-08T13:32:30;1012.09;;;25.42;72.13
64230;BME280;50547;49.498;0.092;2023-07-08T13:37:39;1012.30;;;25.29;71.99